Terminal Aerodrome Forecast
Issued by NWS Sterling, VA

Current Version | Previous Version | Graphics & Text | Print | Product List | Glossary On
Versions: 1 2 3 4 5 6 7 8 9 10 11 12 13 14 15 16 17 18 19 20
928
FTUS41 KLWX 222100 AAA
TAFDCA
TAF AMD
KDCA 222100Z 2221/2318 35011KT 5SM -RA BKN015 OVC045
     FM230200 35005KT 5SM BR SCT025 OVC040
     FM230600 36006KT P6SM SCT025 OVC110
     FM231500 04006KT P6SM SCT030 OVC090=

USA.gov is the U.S. government's official web portal to all federal, state and local government web resources and services.